createdAt,value
2023-02-14T00:02:51.264Z,-16.25
2023-02-14T00:05:54.610Z,-16.08
2023-02-14T00:08:57.953Z,-15.87
2023-02-14T00:12:01.682Z,-15.75
2023-02-14T00:15:23.378Z,-15.69
2023-02-14T00:18:49.504Z,-15.93
2023-02-14T00:21:53.237Z,-16.14
2023-02-14T00:24:56.419Z,-16.02
2023-02-14T00:27:59.781Z,-15.84
2023-02-14T00:31:04.582Z,-15.68
2023-02-14T00:34:09.019Z,-15.54
2023-02-14T00:37:12.226Z,-15.62
2023-02-14T00:40:16.317Z,-15.60
2023-02-14T00:43:19.512Z,-15.52
2023-02-14T00:46:24.150Z,-15.63
2023-02-14T00:49:27.607Z,-15.76
2023-02-14T00:52:32.187Z,-15.77
2023-02-14T00:55:35.364Z,-15.66
2023-02-14T00:58:38.621Z,-15.59
2023-02-14T01:01:42.239Z,-15.57
2023-02-14T01:04:46.397Z,-15.50
2023-02-14T01:07:49.596Z,-15.55
2023-02-14T01:10:53.359Z,-15.71
2023-02-14T01:13:59.223Z,-15.67
2023-02-14T01:17:02.954Z,-15.58
2023-02-14T01:20:07.708Z,-15.33
2023-02-14T01:23:11.138Z,-14.96
2023-02-14T01:26:15.581Z,-14.65
2023-02-14T01:29:18.803Z,-14.44
2023-02-14T01:32:22.595Z,-14.29
2023-02-14T01:35:27.093Z,-14.11
2023-02-14T01:38:30.575Z,-13.92
2023-02-14T01:41:36.135Z,-13.69
2023-02-14T01:44:39.736Z,-13.52
2023-02-14T01:47:45.837Z,-13.34
2023-02-14T01:50:53.482Z,-13.14
2023-02-14T01:53:58.736Z,-12.92
2023-02-14T01:57:07.424Z,-12.72
2023-02-14T02:00:30.287Z,-12.64
2023-02-14T02:03:47.489Z,-12.66
2023-02-14T02:06:55.854Z,-12.46
2023-02-14T02:10:03.684Z,-12.31
2023-02-14T02:13:09.068Z,-12.15
2023-02-14T02:16:30.456Z,-12.11
2023-02-14T02:19:57.780Z,-12.07
2023-02-14T02:23:38.349Z,-11.90
2023-02-14T02:27:08.648Z,-11.94
2023-02-14T02:30:56.656Z,-11.91
2023-02-14T02:34:46.949Z,-11.76
2023-02-14T02:38:15.647Z,-11.57
2023-02-14T02:41:48.657Z,-11.32
2023-02-14T02:44:52.018Z,-11.06
2023-02-14T02:48:18.300Z,-10.83
2023-02-14T02:52:13.419Z,-10.58
2023-02-14T02:55:54.938Z,-10.42
2023-02-14T02:59:19.587Z,-10.35
2023-02-14T03:02:55.417Z,-10.29
2023-02-14T03:05:59.527Z,-10.21
2023-02-14T03:09:20.974Z,-10.18
2023-02-14T03:12:39.350Z,-10.15
2023-02-14T03:16:15.951Z,-10.09
2023-02-14T03:19:37.748Z,-10.00
2023-02-14T03:23:03.639Z,-9.87
2023-02-14T03:26:18.064Z,-9.75
2023-02-14T03:29:44.602Z,-9.55
2023-02-14T03:33:02.608Z,-9.41
2023-02-14T03:36:17.236Z,-9.21
2023-02-14T03:39:27.823Z,-9.08
2023-02-14T03:42:46.190Z,-8.91
2023-02-14T03:46:25.118Z,-8.77
2023-02-14T03:49:33.105Z,-8.61
2023-02-14T03:52:38.278Z,-8.41
2023-02-14T03:56:03.351Z,-8.17
2023-02-14T03:59:22.780Z,-7.93
2023-02-14T04:02:37.489Z,-7.75
2023-02-14T04:05:45.347Z,-7.59
2023-02-14T04:08:48.673Z,-7.45
2023-02-14T04:11:51.897Z,-7.34
2023-02-14T04:14:55.174Z,-7.24
2023-02-14T04:18:16.788Z,-7.16
2023-02-14T04:21:20.231Z,-7.07
2023-02-14T04:24:23.407Z,-6.99
2023-02-14T04:27:26.731Z,-6.90
2023-02-14T04:30:30.125Z,-6.79
2023-02-14T04:33:34.590Z,-6.64
2023-02-14T04:36:37.796Z,-6.51
2023-02-14T04:39:41.069Z,-6.43
2023-02-14T04:42:45.869Z,-6.32
2023-02-14T04:45:49.354Z,-6.20
2023-02-14T04:48:52.678Z,-6.13
2023-02-14T04:51:55.917Z,-6.03
2023-02-14T04:54:59.347Z,-5.91
2023-02-14T04:58:02.576Z,-5.76
2023-02-14T05:01:05.815Z,-5.56
2023-02-14T05:04:09.561Z,-5.41
2023-02-14T05:07:12.835Z,-5.15
2023-02-14T05:10:16.184Z,-4.98
2023-02-14T05:13:19.464Z,-4.86
2023-02-14T05:16:22.924Z,-4.79
2023-02-14T05:19:26.376Z,-4.74
2023-02-14T05:22:29.532Z,-4.69
2023-02-14T05:25:33.042Z,-4.61
2023-02-14T05:28:36.704Z,-4.50
2023-02-14T05:31:40.013Z,-4.37
2023-02-14T05:34:43.288Z,-4.21
2023-02-14T05:37:46.757Z,-4.04
2023-02-14T05:40:49.939Z,-3.90
2023-02-14T05:43:53.174Z,-3.74
2023-02-14T05:46:56.440Z,-3.62
2023-02-14T05:49:59.718Z,-3.56
2023-02-14T05:53:03.133Z,-3.43
2023-02-14T05:56:06.876Z,-3.35
2023-02-14T05:59:10.183Z,-3.35
2023-02-14T06:02:14.936Z,-3.35
2023-02-14T06:05:18.976Z,-3.18
2023-02-14T06:08:22.259Z,-3.08
2023-02-14T06:11:25.721Z,-3.00
2023-02-14T06:14:28.973Z,-2.96
2023-02-14T06:17:32.147Z,-2.87
2023-02-14T06:20:35.467Z,-2.84
2023-02-14T06:23:38.767Z,-2.80
2023-02-14T06:26:41.962Z,-2.76
2023-02-14T06:29:45.268Z,-2.81
2023-02-14T06:32:48.462Z,-2.76
2023-02-14T06:35:53.978Z,-2.85
2023-02-14T06:38:57.376Z,-3.01
2023-02-14T06:42:00.569Z,-3.02
2023-02-14T06:45:03.862Z,-2.95
2023-02-14T06:48:07.363Z,-2.94
2023-02-14T06:51:11.088Z,-2.88
2023-02-14T06:54:14.559Z,-2.81
2023-02-14T06:57:17.754Z,-2.78
2023-02-14T07:00:21.537Z,-2.75
2023-02-14T07:03:25.123Z,-2.75
2023-02-14T07:06:28.457Z,-2.76
2023-02-14T07:09:31.946Z,-2.74
2023-02-14T07:12:35.599Z,-2.74
2023-02-14T07:15:38.841Z,-2.83
2023-02-14T07:18:42.046Z,-2.86
2023-02-14T07:21:45.337Z,-2.86
2023-02-14T07:24:48.674Z,-2.92
2023-02-14T07:27:51.872Z,-3.02
2023-02-14T07:30:55.204Z,-3.00
2023-02-14T07:34:01.550Z,-2.98
2023-02-14T07:37:04.820Z,-2.98
2023-02-14T07:40:14.685Z,-2.90
2023-02-14T07:43:20.168Z,-2.84
2023-02-14T07:46:23.535Z,-2.86
2023-02-14T07:49:26.786Z,-2.82
2023-02-14T07:52:30.257Z,-2.90
2023-02-14T07:55:33.458Z,-3.01
2023-02-14T07:58:36.735Z,-3.06
2023-02-14T08:01:39.921Z,-3.05
2023-02-14T08:04:43.318Z,-3.02
2023-02-14T08:07:49.486Z,-3.05
2023-02-14T08:10:52.755Z,-3.13
2023-02-14T08:13:56.076Z,-3.12
2023-02-14T08:16:59.244Z,-3.09
2023-02-14T08:20:02.426Z,-3.15
2023-02-14T08:23:05.868Z,-3.19
2023-02-14T08:26:09.461Z,-3.19
2023-02-14T08:29:12.620Z,-3.23
2023-02-14T08:32:16.592Z,-3.32
2023-02-14T08:35:20.071Z,-3.40
2023-02-14T08:38:23.691Z,-3.42
2023-02-14T08:41:26.875Z,-3.49
2023-02-14T08:44:30.060Z,-3.55
2023-02-14T08:47:39.177Z,-3.61
2023-02-14T08:50:42.431Z,-3.71
2023-02-14T08:53:46.936Z,-3.87
2023-02-14T08:56:50.193Z,-3.97
2023-02-14T08:59:53.412Z,-4.06
2023-02-14T09:02:56.707Z,-4.15
2023-02-14T09:06:04.848Z,-4.23
2023-02-14T09:09:08.911Z,-4.36
2023-02-14T09:12:14.576Z,-4.48
2023-02-14T09:15:17.867Z,-4.59
2023-02-14T09:18:21.354Z,-4.67
2023-02-14T09:21:28.137Z,-4.77
2023-02-14T09:24:33.126Z,-4.92
2023-02-14T09:27:36.774Z,-5.05
2023-02-14T09:30:40.017Z,-5.17
2023-02-14T09:33:44.260Z,-5.31
2023-02-14T09:36:47.526Z,-5.42
2023-02-14T09:39:50.902Z,-5.56
2023-02-14T09:43:06.376Z,-5.68
2023-02-14T09:46:15.644Z,-5.80
2023-02-14T09:49:29.603Z,-5.88
2023-02-14T09:52:33.344Z,-5.91
2023-02-14T09:55:49.941Z,-5.92
2023-02-14T09:59:46.876Z,-5.88
2023-02-14T10:03:24.255Z,-5.86
2023-02-14T10:06:48.563Z,-5.84
2023-02-14T10:10:20.034Z,-5.83
2023-02-14T10:13:44.311Z,-5.86
2023-02-14T10:17:02.907Z,-5.90
2023-02-14T10:20:20.716Z,-5.92
2023-02-14T10:23:46.254Z,-5.97
2023-02-14T10:26:51.261Z,-5.96
2023-02-14T10:29:54.622Z,-5.98
2023-02-14T10:33:07.335Z,-6.01
2023-02-14T10:36:26.124Z,-6.02
2023-02-14T10:39:44.028Z,-6.02
2023-02-14T10:43:01.586Z,-6.05
2023-02-14T10:46:34.010Z,-6.06
2023-02-14T10:49:50.440Z,-6.08
2023-02-14T10:53:05.467Z,-6.04
2023-02-14T10:56:27.650Z,-6.00
2023-02-14T10:59:47.115Z,-6.01
2023-02-14T11:02:54.610Z,-6.03
2023-02-14T11:05:57.963Z,-6.01
2023-02-14T11:09:01.341Z,-5.97
2023-02-14T11:12:04.776Z,-5.96
2023-02-14T11:15:10.993Z,-5.97
2023-02-14T11:18:33.695Z,-5.99
2023-02-14T11:21:41.167Z,-6.03
2023-02-14T11:24:46.415Z,-6.05
2023-02-14T11:27:52.931Z,-6.07
2023-02-14T11:30:56.922Z,-6.12
2023-02-14T11:34:04.703Z,-6.12
2023-02-14T11:37:44.212Z,-6.15
2023-02-14T11:40:56.983Z,-6.22
2023-02-14T11:44:23.161Z,-6.25
2023-02-14T11:47:33.776Z,-6.27
2023-02-14T11:50:38.594Z,-6.28
2023-02-14T11:53:56.964Z,-6.30
2023-02-14T11:57:33.453Z,-6.31
2023-02-14T12:00:37.369Z,-6.27
2023-02-14T12:03:47.195Z,-6.35
2023-02-14T12:06:51.001Z,-6.38
2023-02-14T12:10:09.619Z,-6.39
2023-02-14T12:13:13.237Z,-6.40
2023-02-14T12:16:28.248Z,-6.41
2023-02-14T12:19:43.100Z,-6.46
2023-02-14T12:23:05.875Z,-6.47
2023-02-14T12:26:16.879Z,-6.53
2023-02-14T12:29:45.127Z,-6.61
2023-02-14T12:32:54.315Z,-6.69
2023-02-14T12:36:18.638Z,-6.74
2023-02-14T12:39:37.733Z,-6.80
2023-02-14T12:43:13.266Z,-6.86
2023-02-14T12:46:22.470Z,-6.88
2023-02-14T12:49:34.225Z,-6.92
2023-02-14T12:52:56.244Z,-6.97
2023-02-14T12:56:07.937Z,-7.03
2023-02-14T12:59:20.725Z,-7.06
2023-02-14T13:02:54.363Z,-7.07
2023-02-14T13:06:09.773Z,-7.14
2023-02-14T13:09:46.548Z,-7.19
2023-02-14T13:13:11.219Z,-7.26
2023-02-14T13:16:24.812Z,-7.32
2023-02-14T13:19:53.893Z,-7.39
2023-02-14T13:23:01.207Z,-7.46
2023-02-14T13:26:28.176Z,-7.53
2023-02-14T13:29:41.612Z,-7.60
2023-02-14T13:32:48.081Z,-7.64
2023-02-14T13:35:53.059Z,-7.67
2023-02-14T13:38:58.518Z,-7.72
2023-02-14T13:42:03.060Z,-7.77
2023-02-14T13:45:07.346Z,-7.77
2023-02-14T13:48:20.319Z,-7.77
2023-02-14T13:51:43.640Z,-7.82
2023-02-14T13:54:49.038Z,-7.87
2023-02-14T13:58:19.649Z,-7.90
2023-02-14T14:01:29.111Z,-7.98
2023-02-14T14:04:32.672Z,-8.05
2023-02-14T14:07:35.916Z,-8.14
2023-02-14T14:10:48.070Z,-8.18
2023-02-14T14:14:19.024Z,-8.23
2023-02-14T14:17:26.707Z,-8.26
2023-02-14T14:20:30.022Z,-8.25
2023-02-14T14:23:38.129Z,-8.30
2023-02-14T14:26:46.177Z,-8.30
2023-02-14T14:29:52.162Z,-8.36
2023-02-14T14:32:55.420Z,-8.42
2023-02-14T14:36:07.750Z,-8.45
2023-02-14T14:39:11.935Z,-8.48
2023-02-14T14:42:16.286Z,-8.51
2023-02-14T14:45:28.493Z,-8.49
2023-02-14T14:48:41.758Z,-8.48
2023-02-14T14:51:45.024Z,-8.52
2023-02-14T14:54:48.382Z,-8.57
2023-02-14T14:58:05.671Z,-8.58
2023-02-14T15:01:13.871Z,-8.68
2023-02-14T15:04:19.963Z,-8.71
2023-02-14T15:07:35.848Z,-8.70
2023-02-14T15:10:39.043Z,-8.67
2023-02-14T15:13:54.362Z,-8.65
2023-02-14T15:17:15.249Z,-8.68
2023-02-14T15:20:24.017Z,-8.64
2023-02-14T15:23:27.318Z,-8.69
2023-02-14T15:26:33.335Z,-8.67
2023-02-14T15:29:36.630Z,-8.72
2023-02-14T15:32:40.066Z,-8.80
2023-02-14T15:35:44.637Z,-8.85
2023-02-14T15:38:48.680Z,-8.82
2023-02-14T15:41:56.211Z,-8.82
2023-02-14T15:45:26.732Z,-8.83
2023-02-14T15:48:34.083Z,-8.83
2023-02-14T15:51:38.983Z,-8.84
2023-02-14T15:54:48.373Z,-8.86
2023-02-14T15:58:00.044Z,-8.88
2023-02-14T16:01:04.316Z,-8.89
2023-02-14T16:04:07.941Z,-8.87
2023-02-14T16:07:25.805Z,-8.91
2023-02-14T16:10:33.518Z,-8.97
2023-02-14T16:13:42.688Z,-9.09
2023-02-14T16:17:06.950Z,-9.29
2023-02-14T16:20:43.928Z,-9.42
2023-02-14T16:24:08.482Z,-9.63
2023-02-14T16:27:13.958Z,-9.72
2023-02-14T16:30:19.231Z,-9.82
2023-02-14T16:33:28.426Z,-9.86
2023-02-14T16:36:33.719Z,-9.87
2023-02-14T16:39:39.873Z,-9.94
2023-02-14T16:42:43.669Z,-10.08
2023-02-14T16:45:47.794Z,-10.22
2023-02-14T16:48:54.072Z,-10.21
2023-02-14T16:51:58.324Z,-10.21
2023-02-14T16:55:01.577Z,-10.28
2023-02-14T16:58:04.942Z,-10.36
2023-02-14T17:01:08.354Z,-10.46
2023-02-14T17:04:11.565Z,-10.57
2023-02-14T17:07:16.410Z,-10.95
2023-02-14T17:10:21.256Z,-11.20
2023-02-14T17:13:27.870Z,-11.23
2023-02-14T17:16:32.273Z,-11.11
2023-02-14T17:19:35.190Z,-10.98
2023-02-14T17:22:38.697Z,-10.88
2023-02-14T17:25:41.889Z,-10.86
2023-02-14T17:28:47.133Z,-10.90
2023-02-14T17:31:50.485Z,-10.93
2023-02-14T17:34:54.363Z,-11.01
2023-02-14T17:37:57.641Z,-11.17
2023-02-14T17:41:01.104Z,-11.23
2023-02-14T17:44:06.345Z,-11.18
2023-02-14T17:47:09.603Z,-11.12
2023-02-14T17:50:13.963Z,-11.31
2023-02-14T17:53:18.564Z,-11.69
2023-02-14T17:56:24.584Z,-12.06
2023-02-14T17:59:27.878Z,-12.21
2023-02-14T18:02:31.060Z,-12.09
2023-02-14T18:05:37.483Z,-11.91
2023-02-14T18:08:46.997Z,-11.74
2023-02-14T18:11:51.151Z,-11.64
2023-02-14T18:14:55.883Z,-11.54
2023-02-14T18:17:59.127Z,-11.48
2023-02-14T18:21:05.822Z,-11.41
2023-02-14T18:24:10.065Z,-11.42
2023-02-14T18:27:16.523Z,-11.46
2023-02-14T18:30:20.025Z,-11.52
2023-02-14T18:33:25.403Z,-11.50
2023-02-14T18:36:29.814Z,-11.52
2023-02-14T18:39:33.410Z,-11.52
2023-02-14T18:42:36.736Z,-11.55
2023-02-14T18:45:40.668Z,-11.78
2023-02-14T18:48:44.179Z,-11.86
2023-02-14T18:51:49.568Z,-11.83
2023-02-14T18:54:52.936Z,-11.77
2023-02-14T18:57:56.294Z,-11.69
2023-02-14T19:00:59.717Z,-11.70
2023-02-14T19:04:03.778Z,-11.86
2023-02-14T19:07:07.264Z,-12.24
2023-02-14T19:10:11.372Z,-12.33
2023-02-14T19:13:14.565Z,-12.25
2023-02-14T19:16:20.323Z,-12.21
2023-02-14T19:19:24.066Z,-12.22
2023-02-14T19:22:27.650Z,-12.52
2023-02-14T19:25:33.347Z,-12.90
2023-02-14T19:28:36.542Z,-13.05
2023-02-14T19:31:43.116Z,-13.16
2023-02-14T19:34:46.504Z,-13.37
2023-02-14T19:37:53.082Z,-13.57
2023-02-14T19:40:57.594Z,-13.65
2023-02-14T19:44:02.537Z,-13.76
2023-02-14T19:47:19.280Z,-13.88
2023-02-14T19:50:29.321Z,-13.79
2023-02-14T19:53:36.896Z,-13.68
2023-02-14T19:56:43.287Z,-13.73
2023-02-14T19:59:46.580Z,-13.78
2023-02-14T20:02:49.852Z,-13.81
2023-02-14T20:05:53.344Z,-13.85
2023-02-14T20:08:56.764Z,-13.73
2023-02-14T20:12:01.798Z,-13.54
2023-02-14T20:15:06.536Z,-13.36
2023-02-14T20:18:09.876Z,-13.25
2023-02-14T20:21:18.782Z,-13.27
2023-02-14T20:24:32.480Z,-13.35
2023-02-14T20:27:36.609Z,-13.39
2023-02-14T20:30:41.033Z,-13.44
2023-02-14T20:33:44.224Z,-13.50
2023-02-14T20:36:53.951Z,-13.54
2023-02-14T20:39:57.184Z,-13.69
2023-02-14T20:43:00.437Z,-13.80
2023-02-14T20:46:05.316Z,-13.74
2023-02-14T20:49:10.011Z,-13.67
2023-02-14T20:52:15.185Z,-13.60
2023-02-14T20:55:18.726Z,-13.52
2023-02-14T20:58:21.916Z,-13.52
2023-02-14T21:01:26.064Z,-13.58
2023-02-14T21:04:29.540Z,-13.58
2023-02-14T21:07:32.953Z,-13.58
2023-02-14T21:10:36.110Z,-13.52
2023-02-14T21:13:39.553Z,-13.45
2023-02-14T21:16:42.834Z,-13.33
2023-02-14T21:19:46.125Z,-13.20
2023-02-14T21:22:49.324Z,-13.05
2023-02-14T21:25:52.580Z,-13.09
2023-02-14T21:28:56.185Z,-13.34
2023-02-14T21:32:01.720Z,-13.44
2023-02-14T21:35:06.095Z,-13.37
2023-02-14T21:38:09.352Z,-13.27
2023-02-14T21:41:15.537Z,-13.25
2023-02-14T21:44:39.510Z,-13.50
2023-02-14T21:47:42.943Z,-13.78
2023-02-14T21:50:46.115Z,-13.81
2023-02-14T21:53:49.883Z,-13.78
2023-02-14T21:56:53.108Z,-13.73
2023-02-14T21:59:56.244Z,-13.71
2023-02-14T22:02:59.480Z,-13.64
2023-02-14T22:06:08.041Z,-13.54
2023-02-14T22:09:13.916Z,-13.48
2023-02-14T22:12:17.214Z,-13.54
2023-02-14T22:15:20.529Z,-13.55
2023-02-14T22:18:23.730Z,-13.50
2023-02-14T22:21:27.828Z,-13.40
2023-02-14T22:24:31.094Z,-13.38
2023-02-14T22:27:39.142Z,-13.44
2023-02-14T22:30:42.385Z,-13.60
2023-02-14T22:33:46.051Z,-13.60
2023-02-14T22:36:50.011Z,-13.58
2023-02-14T22:39:53.171Z,-13.71
2023-02-14T22:42:56.402Z,-13.88
2023-02-14T22:46:05.188Z,-14.11
2023-02-14T22:49:08.704Z,-14.26
2023-02-14T22:52:11.914Z,-14.26
2023-02-14T22:55:15.246Z,-14.15
2023-02-14T22:58:18.409Z,-14.10
2023-02-14T23:01:22.695Z,-14.27
2023-02-14T23:04:26.226Z,-14.45
2023-02-14T23:07:30.010Z,-14.68
2023-02-14T23:10:35.510Z,-14.84
2023-02-14T23:13:57.442Z,-14.99
2023-02-14T23:17:19.410Z,-15.06
2023-02-14T23:20:41.291Z,-15.17
2023-02-14T23:23:44.831Z,-15.20
2023-02-14T23:26:48.046Z,-15.28
2023-02-14T23:29:51.443Z,-15.41
2023-02-14T23:32:55.460Z,-15.31
2023-02-14T23:36:02.698Z,-15.10
2023-02-14T23:39:06.739Z,-14.92
2023-02-14T23:42:12.872Z,-15.00
2023-02-14T23:45:34.855Z,-15.21
2023-02-14T23:48:38.108Z,-15.22
2023-02-14T23:51:41.990Z,-15.08
2023-02-14T23:54:45.270Z,-15.13
2023-02-14T23:57:48.522Z,-15.42
